Tiempo atmosférico en la estación meteorológica de Cuéllar, Segovia (795 m.)



Fecha
DESCASC
Temp. máxima en grados centígrados (hora)
DESCASC
Temp. mínima en grados centígrados (hora)
DESCASC
Temp. media en grados centígrados
DESCASC
Racha de viento máxima en m/sg (hora)
DESCASC
Velocidad máxima media en intervalos de 10 minutos(hora)
DESCASC
Precipitaciones diarias en mm
DESCASC
Precipitaciones de 00:00 a 06:00 en mm
DESCASC
Precipitaciones de 06:00 a 12:00 en mm
DESCASC
Precipitaciones de 12:00 a 18:00 en mm
DESCASC
Precipitaciones de 18:00 a 24:00 en mm
DESCASC
15-11-2018 19.3 (14:40) 3.1 (05:20) 11.2 6.11 (13:30) 3.33 (13:30) 0 0 0 0 0
14-11-2018 19.5 (15:30) 4.3 (05:00) 11.9 4.72 (05:10) 3.06 (20:40) 0.2 0.2 0 0 0
13-11-2018 14.4 (16:30) 3.9 (20:20) 9.1 4.44 (08:50) 3.33 (09:00) 0 0 0 0 0
12-11-2018 13.8 (15:50) 6.8 (08:30) 10.3 7.22 (02:20) 4.44 (02:20) 1.4 1 0.2 0 0.2
11-11-2018 14.4 (12:10) 6.9 (00:00) 10.6 12.22 (22:00) 6.67 (21:30) 0.6 0 0 0.4 0.2
10-11-2018 12.7 (11:00) 7.9 (00:00) 10.3 13.89 (14:50) 6.94 (14:50) 1.4 0 0.4 1 0
09-11-2018 10.1 (14:50) 4.2 (00:00) 7.2 8.89 (14:10) 5 (12:20) 0 0 0 0 0
08-11-2018 13.9 (14:20) -0.4 (00:00) 6.7 12.22 (20:20) 7.22 (13:20) 7.4 0 0 0 7.4
07-11-2018 13.4 (16:10) 0 (00:00) 6.7 10.83 (06:50) 5.83 (04:00) 4.2 0.8 3.4 0 0
06-11-2018 8.6 (23:59) 5 (00:00) 6.8 10.28 (02:20) 5.56 (02:20) 1.8 0.4 0 1.4 0
05-11-2018 9.1 (14:10) 5 (00:00) 7.1 8.61 (23:59) 4.17 (23:59) 18.2 12.6 0.8 1.2 3.6
04-11-2018 18.7 (14:20) -4 (-00:0) 7.4 8.89 (19:50) 4.72 (19:50) 4 0 0 0 4
03-11-2018 18.4 (16:10) -3.4 (-00:0) 7.5 4.72 (12:30) 2.78 (00:10) 0 0 0 0 0
02-11-2018 18.1 (15:40) 4.6 (00:00) 11.4 10 (09:30) 6.39 (11:50) 0.4 0.2 0.2 0 0
01-11-2018 12.7 (13:30) 4.2 (00:00) 8.4 5 (11:00) 2.78 (14:10) 0 0 0 0 0
31-10-2018 8.1 (17:00) 5.2 (00:00) 6.7 5.83 (08:20) 3.06 (15:10) 3.4 2.2 1 0 0.2
30-10-2018 9.9 (16:00) -0.3 (00:00) 4.8 5.28 (15:10) 3.89 (16:20) 6.2 0.8 3.6 1.2 0.6
29-10-2018 10.2 (14:10) -2.4 (-00:0) 3.9 11.11 (13:20) 7.5 (14:40) 0 0 0 0 0
28-10-2018 8.5 (13:40) -1.9 (-00:0) 3.3 10.28 (14:50) 7.22 (14:50) 0.4 0.2 0.2 0 0
27-10-2018 11.3 (15:30) 1.7 (00:00) 6.5 13.06 (16:50) 8.33 (07:20) 1.6 0 0 1.2 0.4
26-10-2018 17.1 (16:50) 1.3 (00:00) 9.2 6.11 (23:50) 3.61 (23:50) 0 0 0 0 0
25-10-2018 24.1 (16:50) -3.6 (-00:0) 10.3 4.17 (15:50) 2.22 (18:00) 0 0 0 0 0
24-10-2018 22.5 (17:20) -2.3 (-00:0) 10.1 5.28 (14:40) 2.78 (00:20) 0 0 0 0 0
23-10-2018 24.4 (17:00) 1.4 (00:00) 12.9 11.94 (02:10) 8.89 (02:10) 0 0 0 0 0
22-10-2018 22.9 (16:20) 3.2 (00:00) 13 12.22 (20:40) 9.44 (20:40) 0 0 0 0 0
21-10-2018 23.5 (15:00) 6.6 (00:00) 15 7.78 (04:40) 5.56 (01:50) 0 0 0 0 0
20-10-2018 21.4 (15:10) 12 (00:00) 16.7 13.33 (16:00) 9.72 (16:10) 1.4 1.4 0 0 0
19-10-2018 18.2 (17:10) 13.2 (00:00) 15.7 12.5 (11:50) 9.44 (13:10) 0 0 0 0 0
18-10-2018 21.9 (15:00) 10.8 (00:00) 16.3 12.78 (13:10) 8.89 (20:30) 0.8 0.6 0.2 0 0

Gráficas

Temp. máximas Temp. mínimas Temp. medias Precipitaciones Rachas de viento máximas Velocidades máximas media en intervalos de 10 minutos

Datos horarios

Fecha y hora oficial Temperatura (ºC) Velocidad del viento (km/h) Dirección del viento Racha (km/h) Dirección de racha Precipitación (mm) Presión (hPa) Tendencia (hPa) Humedad (%)
2018-11-16 23:00:00 6 0 Calma 4 Este 0 -- -- 98
2018-11-16 22:00:00 7.3 0 Calma 4 Este 0 -- -- 98
2018-11-16 21:00:00 6.8 6 Este 8 Este 0 -- -- 96
2018-11-16 20:00:00 8.3 3 Nordeste 12 Este 0 -- -- 96
2018-11-16 19:00:00 9.7 5 Este 9 Este 0 -- -- 93
2018-11-16 18:00:00 11.4 7 Este 12 Este 0 -- -- 86
2018-11-16 17:00:00 14.1 5 Este 13 Este 0 -- -- 78
2018-11-16 16:00:00 15.1 7 Este 12 Sudeste 0 -- -- 73
2018-11-16 15:00:00 16.4 5 Este 8 Este 0 -- -- 70
2018-11-16 14:00:00 14.4 0 Calma 7 Oeste 0 -- -- 78
2018-11-16 13:00:00 14.5 4 Oeste 6 Oeste 0 -- -- 76
2018-11-16 12:00:00 15.4 3 Este 11 Este 0 -- -- 68
2018-11-16 11:00:00 15 8 Este 15 Este 0 -- -- 69
2018-11-16 10:00:00 11 2 Este 8 Este 0 -- -- 85
2018-11-16 09:00:00 8.4 3 Este 8 Nordeste 0 -- -- 96
2018-11-16 08:00:00 8.1 8 Este 13 Nordeste 0 -- -- 97
2018-11-16 07:00:00 6.5 4 Este 6 Este 0 -- -- 99
2018-11-16 06:00:00 5.1 4 Este 8 Este 0 -- -- 100
2018-11-16 05:00:00 5.5 4 Este 13 Este 0 -- -- 98
2018-11-16 04:00:00 6.1 3 Este 9 Nordeste 0 -- -- 99
2018-11-16 03:00:00 5.5 4 Este 5 Este 0 -- -- 98
2018-11-16 02:00:00 6.8 3 Este 5 Este 0 -- -- 98
2018-11-16 01:00:00 6.5 2 Noroeste 7 Este 0 -- -- 98
2018-11-16 00:00:00 5.6 7 Este 12 Este 0 -- -- 98
2018-11-15 23:00:00 7.4 9 Este 14 Este 0 -- -- 94
2018-11-15 22:00:00 7.9 7 Este 12 Este 0 -- -- 92
2018-11-15 21:00:00 10.8 10 Nordeste 14 Este 0 -- -- 85
2018-11-15 20:00:00 9.5 5 Este 14 Nordeste 0 -- -- 87
2018-11-15 19:00:00 10.9 9 Este 13 Nordeste 0 -- -- 84
2018-11-15 18:00:00 12.5 6 Este 10 Este 0 -- -- 77
2018-11-15 17:00:00 17.1 7 Este 14 Este 0 -- -- 58
2018-11-15 16:00:00 18.8 6 Nordeste 13 Este 0 -- -- 48
2018-11-15 15:00:00 17.6 4 Nordeste 17 Este 0 -- -- 56
2018-11-15 14:00:00 16.9 8 Este 22 Este 0 -- -- 56
2018-11-15 13:00:00 18.2 8 Este 17 Este 0 -- -- 55
2018-11-15 12:00:00 16.8 9 Este 15 Este 0 -- -- 66
2018-11-15 11:00:00 15 7 Este 13 Este 0 -- -- 71
2018-11-15 10:00:00 12.5 3 Sudeste 9 Norte 0 -- -- 85
2018-11-15 09:00:00 8.4 5 Este 12 Nordeste 0 -- -- 92
2018-11-15 08:00:00 6.5 9 Nordeste 15 Nordeste 0 -- -- 98
2018-11-15 07:00:00 6.8 8 Nordeste 14 Nordeste 0 -- -- 99
2018-11-15 06:00:00 4.1 3 Nordeste 12 Nordeste 0 -- -- 99
2018-11-15 05:00:00 4.1 4 Este 6 Este 0 -- -- 99
2018-11-15 04:00:00 4.2 3 Este 7 Este 0 -- -- 99
2018-11-15 03:00:00 4.6 4 Sudeste 9 Este 0 -- -- 99
2018-11-15 02:00:00 6.4 6 Este 10 Este 0 -- -- 98
2018-11-15 01:00:00 5.7 6 Este 11 Este 0 -- -- 100
2018-11-15 00:00:00 5.9 5 Nordeste 8 Este 0 -- -- 100
2018-11-14 23:00:00 5.6 6 Este 8 Nordeste 0 -- -- 99
2018-11-14 22:00:00 6.6 5 Nordeste 8 Este 0 -- -- 98
2018-11-14 21:00:00 8 7 Este 14 Nordeste 0 -- -- 91
2018-11-14 20:00:00 7.1 4 Este 9 Este 0 -- -- 97
2018-11-14 19:00:00 9.9 5 Este 8 Este 0 -- -- 88
2018-11-14 18:00:00 11.7 0 Calma 5 Nordeste 0 -- -- 84
2018-11-14 17:00:00 17.3 0 Calma 8 Nordeste 0 -- -- 61
2018-11-14 16:00:00 19.5 3 Norte 9 Este 0 -- -- 54
2018-11-14 15:00:00 17.4 3 Sur 9 Oeste 0 -- -- 61
2018-11-14 14:00:00 17.8 3 Norte 11 Noroeste 0 -- -- 60
2018-11-14 13:00:00 16 5 Noroeste 10 Noroeste 0 -- -- 67
2018-11-14 12:00:00 14.9 4 Nordeste 10 Este 0 -- -- 92
2018-11-14 11:00:00 10.2 5 Norte 9 Norte 0 -- -- 98
2018-11-14 10:00:00 7.2 0 Calma 8 Oeste 0 -- -- 100
2018-11-14 09:00:00 7.3 2 Norte 8 Nordeste 0 -- -- 100
2018-11-14 08:00:00 6.9 4 Nordeste 13 Nordeste 0 -- -- 100
2018-11-14 07:00:00 6.1 7 Nordeste 13 Nordeste 0 -- -- 100
2018-11-14 06:00:00 4.8 10 Este 17 Nordeste 0 -- -- 100
2018-11-14 05:00:00 4.3 4 Este 11 Este 0.2 -- -- 100
2018-11-14 04:00:00 5.5 6 Este 12 Este 0 -- -- 100
2018-11-14 03:00:00 6.2 7 Este 12 Este 0 -- -- 100
2018-11-14 02:00:00 6.7 7 Este 10 Este 0 -- -- 100
2018-11-14 01:00:00 6.5 2 Sudeste 4 Sudeste 0 -- -- 100
2018-11-14 00:00:00 6.3 0 Calma 6 Sudeste 0 -- -- 100
2018-11-13 23:00:00 5.7 3 Sudeste 4 Sudeste 0 -- -- 100
2018-11-13 22:00:00 5.4 0 Calma 2 Sudeste 0 -- -- 100
2018-11-13 21:00:00 5.3 0 Calma 3 Este 0 -- -- 100
2018-11-13 20:00:00 4.7 0 Calma 2 Norte 0 -- -- 98
2018-11-13 19:00:00 6.6 0 Calma 4 Oeste 0 -- -- 97
2018-11-13 18:00:00 10.2 3 Oeste 10 Noroeste 0 -- -- 91
2018-11-13 17:00:00 13 8 Noroeste 11 Noroeste 0 -- -- 80
2018-11-13 16:00:00 12.6 2 Oeste 7 Sudeste 0 -- -- 82
2018-11-13 15:00:00 10.9 4 Sudeste 13 Sudeste 0 -- -- 89
2018-11-13 14:00:00 10.1 7 Este 14 Este 0 -- -- 91
2018-11-13 13:00:00 9.4 5 Nordeste 12 Nordeste 0 -- -- 98
2018-11-13 12:00:00 8.8 5 Nordeste 12 Este 0 -- -- 99
2018-11-13 11:00:00 8.3 8 Este 13 Nordeste 0 -- -- 100
2018-11-13 10:00:00 7.8 6 Nordeste 13 Nordeste 0 -- -- 100
2018-11-13 09:00:00 7.4 12 Nordeste 16 Nordeste 0 -- -- 100
2018-11-13 08:00:00 7.4 8 Nordeste 11 Nordeste 0 -- -- 100
2018-11-13 07:00:00 7.2 6 Norte 9 Norte 0 -- -- 100
2018-11-13 06:00:00 7.3 2 Sudoeste 8 Nordeste 0 -- -- 100
2018-11-13 05:00:00 7.8 0 Calma 6 Norte 0 -- -- 100
2018-11-13 04:00:00 8.4 4 Este 7 Nordeste 0 -- -- 100
2018-11-13 03:00:00 8.8 4 Nordeste 7 Norte 0 -- -- 100
2018-11-13 02:00:00 9 0 Calma 3 Norte 0 -- -- 100
2018-11-13 01:00:00 8.8 0 Calma 3 Sur 0 -- -- 99
2018-11-13 00:00:00 8.8 2 Sur 4 Sur 0.2 -- -- 99
2018-11-12 23:00:00 8.3 2 Sudeste 4 Sudoeste 0 -- -- 98
2018-11-12 22:00:00 8.2 2 Este 3 Nordeste 0 -- -- 98
2018-11-12 21:00:00 8.1 0 Calma 5 Sudeste 0 -- -- 97
2018-11-12 20:00:00 9.9 0 Calma 4 Nordeste 0 -- -- 92
2018-11-12 19:00:00 10.1 2 Sudeste 8 Oeste 0 -- -- 91
2018-11-12 18:00:00 11.1 4 Oeste 17 Sudoeste 0 -- -- 87
2018-11-12 17:00:00 12.1 6 Sudoeste 15 Sudoeste 0 -- -- 78
2018-11-12 16:00:00 13.3 2 Sudeste 6 Sudoeste 0 -- -- 73
2018-11-12 15:00:00 12.7 4 Sudoeste 10 Este 0 -- -- 79
2018-11-12 14:00:00 12.4 8 Este 15 Este 0 -- -- 84
2018-11-12 13:00:00 11.7 11 Este 15 Este 0 -- -- 84
2018-11-12 12:00:00 10.5 9 Este 17 Este 0 -- -- 93
2018-11-12 11:00:00 9.6 8 Este 13 Este 0 -- -- 98
2018-11-12 10:00:00 8.4 2 Este 4 Este 0 -- -- 99
2018-11-12 09:00:00 7.3 0 Calma 7 Nordeste 0 -- -- 99
2018-11-12 08:00:00 7.1 2 Este 6 Este 0 -- -- 99
2018-11-12 07:00:00 7.5 0 Calma 3 Oeste 0.2 -- -- 98
2018-11-12 06:00:00 7.5 0 Calma 6 Sudoeste 0.4 -- -- 98
2018-11-12 05:00:00 7.6 4 Oeste 10 Oeste 0 -- -- 97
2018-11-12 04:00:00 7.5 3 Este 10 Nordeste 0 -- -- 97
2018-11-12 03:00:00 7.3 3 Nordeste 26 Este 0 -- -- 97
2018-11-12 02:00:00 7.4 15 Este 22 Sudeste 0.2 -- -- 98
2018-11-12 01:00:00 7.8 5 Sur 18 Oeste 0.4 -- -- 97
2018-11-12 00:00:00 8.4 10 Oeste 23 Oeste 0 -- -- 96
2018-11-11 23:00:00 9.5 11 Oeste 38 Sur 0 -- -- 90
2018-11-11 22:00:00 13.5 23 Sur 44 Sur 0.2 -- -- 67
2018-11-11 21:00:00 13.7 20 Sur 37 Sur 0 -- -- 68
2018-11-11 20:00:00 13.5 14 Sur 26 Sur 0 -- -- 72
2018-11-11 19:00:00 13.1 9 Sur 31 Sur 0 -- -- 73
2018-11-11 18:00:00 13.5 17 Sur 31 Sur 0 -- -- 71
2018-11-11 17:00:00 13.8 15 Sur 28 Sur 0 -- -- 70
2018-11-11 16:00:00 13.3 16 Sur 30 Sur 0 -- -- 72
2018-11-11 15:00:00 12.3 10 Sur 26 Sur 0 -- -- 83
2018-11-11 14:00:00 11.9 6 Sur 23 Sur 0.4 -- -- 89
2018-11-11 13:00:00 13.8 13 Sur 28 Sur 0 -- -- 77
2018-11-11 12:00:00 14.3 8 Sur 14 Sudeste 0 -- -- 75
2018-11-11 11:00:00 13.1 0 Calma 6 Este 0 -- -- 82
2018-11-11 10:00:00 10.7 3 Este 10 Este 0 -- -- 94
2018-11-11 09:00:00 8.7 0 Calma 3 Este 0 -- -- 96
2018-11-11 08:00:00 8.5 2 Este 6 Sudoeste 0 -- -- 94
2018-11-11 07:00:00 9.1 3 Sur 5 Sudoeste 0 -- -- 91
2018-11-11 06:00:00 10.6 3 Oeste 21 Sudoeste 0 -- -- 87
2018-11-11 05:00:00 11.2 12 Sudoeste 38 Sudoeste 0 -- -- 89
2018-11-11 04:00:00 11.2 9 Oeste 23 Oeste 0 -- -- 93
2018-11-11 03:00:00 10.1 3 Oeste 9 Sur 0 -- -- 95
2018-11-11 02:00:00 8.2 3 Noroeste 9 Este 0 -- -- 98
2018-11-11 01:00:00 7.6 3 Este 6 Este 0 -- -- 96
2018-11-11 00:00:00 7.9 4 Oeste 10 Sudoeste 0 -- -- 92
2018-11-10 23:00:00 9.7 6 Sudoeste 17 Sudoeste 0 -- -- 85
2018-11-10 22:00:00 10.4 8 Sudoeste 19 Oeste 0 -- -- 86
2018-11-10 21:00:00 11.3 9 Sudoeste 20 Sudoeste 0 -- -- 91
2018-11-10 20:00:00 11.3 8 Sudoeste 27 Sudoeste 0 -- -- 90
2018-11-10 19:00:00 11.6 15 Sudoeste 32 Sudoeste 0 -- -- 90
2018-11-10 18:00:00 11.4 9 Sudoeste 25 Sudoeste 0.2 -- -- 95
2018-11-10 17:00:00 11.9 12 Sudoeste 35 Oeste 0 -- -- 93
2018-11-10 16:00:00 12 16 Sudoeste 49 Sudoeste 0 -- -- 93
2018-11-10 15:00:00 11.9 22 Sudoeste 50 Sudoeste 0.8 -- -- 93
2018-11-10 14:00:00 12.1 14 Oeste 34 Sudoeste 0 -- -- 94
2018-11-10 13:00:00 12.3 18 Oeste 37 Sudoeste 0 -- -- 89
2018-11-10 12:00:00 12.1 18 Sudoeste 39 Sudoeste 0.2 -- -- 89
2018-11-10 11:00:00 12.7 5 Oeste 11 Oeste 0 -- -- 83
2018-11-10 10:00:00 11.2 5 Sudoeste 17 Sudoeste 0 -- -- 84
2018-11-10 09:00:00 10.9 7 Sudoeste 15 Sudoeste 0 -- -- 81
2018-11-10 08:00:00 9.9 8 Sur 18 Sur 0.2 -- -- 86
2018-11-10 07:00:00 10.9 10 Sur 23 Sudoeste 0 -- -- 75
2018-11-10 06:00:00 11.2 8 Sudoeste 21 Sur 0 -- -- 75
2018-11-10 05:00:00 10.8 5 Sudoeste 13 Sudoeste 0 -- -- 79
2018-11-10 04:00:00 10.2 4 Sur 9 Sur 0 -- -- 82
2018-11-10 03:00:00 10.2 4 Sudoeste 16 Sudoeste 0 -- -- 83
2018-11-10 02:00:00 9.5 4 Oeste 15 Sudoeste 0 -- -- 86
2018-11-10 01:00:00 9.4 5 Sudoeste 18 Sudoeste 0 -- -- 86
2018-11-10 00:00:00 9.7 9 Sudoeste 18 Sudoeste 0 -- -- 84
2018-11-09 23:00:00 9.4 9 Sudoeste 18 Sur 0 -- -- 84
2018-11-09 22:00:00 9.1 7 Sudoeste 16 Sur 0 -- -- 84
2018-11-09 21:00:00 8.6 8 Sur 17 Sur 0 -- -- 83
2018-11-09 20:00:00 8.4 9 Sudoeste 20 Sudoeste 0 -- -- 81
2018-11-09 19:00:00 8 7 Sudoeste 14 Sur 0 -- -- 87
2018-11-09 18:00:00 8.1 6 Sudoeste 18 Sudoeste 0 -- -- 84
2018-11-09 17:00:00 8.6 10 Sudoeste 29 Sudoeste 0 -- -- 80
2018-11-09 16:00:00 9.2 9 Sudoeste 22 Sudoeste 0 -- -- 70
2018-11-09 15:00:00 9.4 13 Sudoeste 32 Oeste 0 -- -- 70
2018-11-09 14:00:00 8.8 10 Oeste 27 Oeste 0 -- -- 71
2018-11-09 13:00:00 8.3 11 Sudoeste 31 Sudoeste 0 -- -- 75
2018-11-09 12:00:00 9.2 14 Sudoeste 26 Oeste 0 -- -- 75
2018-11-09 11:00:00 6.3 8 Oeste 20 Oeste 0 -- -- 86
2018-11-09 10:00:00 4.3 8 Sudoeste 17 Oeste 0 -- -- 95
2018-11-09 09:00:00 4.5 9 Sudoeste 24 Oeste 0 -- -- 94
2018-11-09 08:00:00 4.6 10 Oeste 22 Sudoeste 0 -- -- 94
2018-11-09 07:00:00 4.5 10 Oeste 20 Oeste 0 -- -- 95
2018-11-09 06:00:00 4.5 12 Oeste 19 Oeste 0 -- -- 95
2018-11-09 05:00:00 4.4 8 Oeste 21 Oeste 0 -- -- 96
2018-11-09 04:00:00 4.3 10 Oeste 23 Oeste 0 -- -- 96
2018-11-09 03:00:00 4.2 9 Sudoeste 21 Sudoeste 0 -- -- 97
2018-11-09 02:00:00 4.4 10 Sudoeste 21 Sudoeste 0 -- -- 97
2018-11-09 01:00:00 4.6 5 Oeste 21 Oeste 0 -- -- 98
2018-11-09 00:00:00 5.4 11 Sudoeste 24 Oeste 0 -- -- 98
2018-11-08 23:00:00 5.3 5 Sudoeste 10 Sudoeste 0 -- -- 98
2018-11-08 22:00:00 5.3 3 Sur 5 Sudoeste 0 -- -- 98
2018-11-08 21:00:00 5.4 5 Sudoeste 44 Sudoeste 1.8 -- -- 97
2018-11-08 20:00:00 7.3 6 Sudoeste 22 Sudoeste 3.2 -- -- 99
2018-11-08 19:00:00 7.3 14 Oeste 33 Sudoeste 2.4 -- -- 95
2018-11-08 18:00:00 9.7 10 Sur 19 Sur 0 -- -- 79
2018-11-08 17:00:00 10.5 14 Sur 34 Sur 0 -- -- 76
2018-11-08 16:00:00 12.4 15 Sur 27 Sur 0 -- -- 66
2018-11-08 15:00:00 12.8 13 Sur 38 Sur 0 -- -- 63
2018-11-08 14:00:00 13.8 18 Sur 44 Sudoeste 0 -- -- 63
2018-11-08 13:00:00 12.4 25 Sur 41 Sur 0 -- -- 68
2018-11-08 12:00:00 10.2 14 Sur 25 Sur 0 -- -- 73
2018-11-08 11:00:00 8.9 10 Sur 21 Sur 0 -- -- 80
2018-11-08 10:00:00 5.8 5 Este 10 Este 0 -- -- 93
2018-11-08 09:00:00 4.1 3 Este 9 Este 0 -- -- 98
2018-11-08 08:00:00 2.5 5 Este 9 Este 0 -- -- 98
2018-11-08 07:00:00 2.7 5 Este 11 Este 0 -- -- 99
2018-11-08 06:00:00 2.1 5 Este 8 Este 0 -- -- 99
2018-11-08 05:00:00 2.2 4 Este 7 Este 0 -- -- 99
2018-11-08 04:00:00 2.7 6 Este 11 Este 0 -- -- 100
2018-11-08 03:00:00 1.3 2 Este 8 Sudeste 0 -- -- 99
2018-11-08 02:00:00 0.2 3 Sudeste 5 Sudeste 0 -- -- 99
2018-11-08 01:00:00 -0.2 3 Sudeste 5 Sudeste 0 -- -- 99
2018-11-08 00:00:00 0.2 2 Sudeste 7 Este 0 -- -- 98
2018-11-07 23:00:00 0.8 2 Sudeste 7 Sudeste 0 -- -- 99
2018-11-07 22:00:00 0.7 5 Este 8 Nordeste 0 -- -- 98
2018-11-07 21:00:00 1.4 2 Norte 5 Este 0 -- -- 98
2018-11-07 20:00:00 1.7 3 Sudeste 4 Sudeste 0 -- -- 94
2018-11-07 19:00:00 3.2 4 Este 7 Sudeste 0 -- -- 87
2018-11-07 18:00:00 9.1 3 Oeste 17 Oeste 0 -- -- 61
2018-11-07 17:00:00 12.7 10 Oeste 27 Sudoeste 0 -- -- 57
2018-11-07 16:00:00 12.5 10 Oeste 27 Oeste 0 -- -- 59
2018-11-07 15:00:00 11.5 13 Oeste 30 Oeste 0 -- -- 63
2018-11-07 14:00:00 12.4 15 Oeste 35 Oeste 0 -- -- 65
2018-11-07 13:00:00 10.5 10 Oeste 26 Sudoeste 0 -- -- 77
2018-11-07 12:00:00 9.9 12 Sudoeste 27 Sudoeste 0 -- -- 88
2018-11-07 11:00:00 8.5 10 Sudoeste 28 Sudoeste 0.2 -- -- 94
2018-11-07 10:00:00 8.2 9 Sudoeste 31 Oeste 0.4 -- -- 97
2018-11-07 09:00:00 7.4 4 Sudoeste 13 Sudoeste 0 -- -- 98
2018-11-07 08:00:00 7.1 10 Sudoeste 23 Sudoeste 0.8 -- -- 98
2018-11-07 07:00:00 7.3 12 Sudoeste 39 Sudoeste 2 -- -- 98
2018-11-07 06:00:00 8.1 8 Sudoeste 32 Sudoeste 0.6 -- -- 93
2018-11-07 05:00:00 9 17 Sur 37 Sur 0 -- -- 84
2018-11-07 04:00:00 9.3 21 Sur 32 Sudoeste 0 -- -- 79
2018-11-07 03:00:00 9.1 18 Sur 31 Sur 0 -- -- 81
2018-11-07 02:00:00 9.4 18 Sur 32 Sudoeste 0.2 -- -- 78
2018-11-07 01:00:00 8.7 13 Sur 28 Sur 0 -- -- 83
2018-11-07 00:00:00 8.6 14 Sur 25 Sur 0 -- -- 84
2018-11-06 23:00:00 7.5 9 Sudoeste 18 Sudoeste 0 -- -- 91
2018-11-06 22:00:00 7.3 3 Oeste 9 Sudoeste 0 -- -- 97
2018-11-06 21:00:00 7.1 0 Calma 5 Oeste 0 -- -- 97
2018-11-06 20:00:00 7.1 2 Oeste 4 Oeste 0 -- -- 97
2018-11-06 19:00:00 7.2 0 Calma 8 Sudeste 0 -- -- 97
2018-11-06 18:00:00 7.3 3 Sur 15 Sur 0 -- -- 95
2018-11-06 17:00:00 7.4 8 Sudoeste 17 Sur 0 -- -- 95
2018-11-06 16:00:00 7.4 7 Sur 13 Sur 0 -- -- 95
2018-11-06 15:00:00 7.2 10 Sudoeste 25 Sudoeste 0.6 -- -- 95
2018-11-06 14:00:00 7.2 11 Sudoeste 26 Sudoeste 0.8 -- -- 93
2018-11-06 13:00:00 8 12 Sudoeste 30 Oeste 0 -- -- 86
2018-11-06 12:00:00 7.9 16 Sudoeste 32 Sudoeste 0 -- -- 81
2018-11-06 11:00:00 7.5 17 Sudoeste 34 Sudoeste 0 -- -- 82
2018-11-06 10:00:00 6.7 12 Sudoeste 30 Oeste 0 -- -- 89
2018-11-06 09:00:00 5.8 9 Sudoeste 24 Oeste 0 -- -- 91
2018-11-06 08:00:00 5.1 12 Sudoeste 26 Sur 0 -- -- 92
2018-11-06 07:00:00 5.2 12 Sudoeste 27 Sudoeste 0 -- -- 91
2018-11-06 06:00:00 5.1 14 Sudoeste 31 Sudoeste 0 -- -- 92
2018-11-06 05:00:00 5.2 13 Sudoeste 30 Sudoeste 0 -- -- 91
2018-11-06 04:00:00 5.2 13 Sudoeste 28 Sudoeste 0 -- -- 91
2018-11-06 03:00:00 5.2 13 Sudoeste 37 Oeste 0.2 -- -- 91
2018-11-06 02:00:00 5.6 15 Oeste 29 Sudoeste 0 -- -- 95
2018-11-06 01:00:00 5.5 13 Sudoeste 31 Oeste 0.2 -- -- 97
2018-11-06 00:00:00 5.7 15 Sudoeste 31 Sudoeste 0.4 -- -- 97
2018-11-05 23:00:00 5.8 13 Oeste 27 Oeste 0.6 -- -- 98
2018-11-05 22:00:00 5.4 8 Oeste 21 Oeste 2.4 -- -- 98
2018-11-05 21:00:00 5 5 Sudoeste 19 Sudoeste 0.2 -- -- 97
2018-11-05 20:00:00 5.4 12 Oeste 23 Sudoeste 0 -- -- 94
2018-11-05 19:00:00 5.8 10 Oeste 18 Oeste 0 -- -- 95
2018-11-05 18:00:00 5.6 9 Oeste 24 Oeste 0 -- -- 93
2018-11-05 17:00:00 6.4 6 Sudoeste 19 Sudoeste 0 -- -- 94
2018-11-05 16:00:00 7.4 7 Sudoeste 14 Sudoeste 0.4 -- -- 89
2018-11-05 15:00:00 5.7 10 Oeste 28 Oeste 0.8 -- -- 93
2018-11-05 14:00:00 9 13 Sur 19 Sudoeste 0 -- -- 73
2018-11-05 13:00:00 8.1 10 Sudoeste 23 Sudoeste 0 -- -- 80
2018-11-05 12:00:00 7.6 10 Sudoeste 22 Sur 0 -- -- 83
2018-11-05 11:00:00 6.8 9 Sudoeste 22 Sudoeste 0 -- -- 92
2018-11-05 10:00:00 6.9 6 Sudoeste 17 Sudoeste 0 -- -- 98
2018-11-05 09:00:00 5.9 3 Sur 5 Sur 0.2 -- -- 99
2018-11-05 08:00:00 5.8 4 Sur 8 Sudoeste 0.4 -- -- 98
2018-11-05 07:00:00 5.9 3 Sudoeste 13 Oeste 0.2 -- -- 98
2018-11-05 06:00:00 6.5 9 Oeste 27 Sudoeste 1.4 -- -- 98
2018-11-05 05:00:00 7.5 2 Oeste 5 Oeste 2.4 -- -- 99
2018-11-05 04:00:00 7.6 0 Calma 5 Sudoeste 2 -- -- 98
2018-11-05 03:00:00 7.7 0 Calma 10 Sudoeste 2.8 -- -- 98
2018-11-05 02:00:00 7.3 2 Sudeste 10 Este 2.6 -- -- 98
2018-11-05 01:00:00 7.3 4 Este 13 Este 1.4 -- -- 98
2018-11-05 00:00:00 7.2 8 Este 12 Este 2.8 -- -- 97
2018-11-04 23:00:00 7.4 2 Sudeste 6 Oeste 0.8 -- -- 95
2018-11-04 22:00:00 7.9 2 Sudoeste 13 Sudoeste 0.4 -- -- 91
2018-11-04 21:00:00 9.2 5 Sudoeste 24 Oeste 0 -- -- 79
2018-11-04 20:00:00 10.1 13 Oeste 32 Sudoeste 0 -- -- 75
2018-11-04 19:00:00 12.4 13 Oeste 23 Oeste 0 -- -- 56
2018-11-04 18:00:00 14.1 5 Sudoeste 20 Sudoeste 0 -- -- 46
2018-11-04 17:00:00 15.6 4 Sudoeste 17 Sudoeste 0 -- -- 43
2018-11-04 16:00:00 16.8 8 Sudoeste 19 Oeste 0 -- -- 48
2018-11-04 15:00:00 18.3 6 Sudoeste 17 Sudoeste 0 -- -- 44
2018-11-04 14:00:00 16.9 9 Oeste 24 Sudoeste 0 -- -- 46
2018-11-04 13:00:00 16.7 11 Sudoeste 21 Oeste 0 -- -- 40
2018-11-04 12:00:00 15.2 5 Sur 10 Sudoeste 0 -- -- 33
2018-11-04 11:00:00 12.6 0 Calma 4 Sur 0 -- -- 47
2018-11-04 10:00:00 7.4 0 Calma 2 Sudeste 0 -- -- 75
2018-11-04 09:00:00 0.7 0 Calma 6 Este 0 -- -- 90
2018-11-04 08:00:00 -3.9 4 Sudeste 6 Este 0 -- -- 97
2018-11-04 07:00:00 -3.5 4 Este 8 Este 0 -- -- 98
2018-11-04 06:00:00 -3.3 4 Este 6 Este 0 -- -- 97
2018-11-04 05:00:00 -3.6 4 Este 8 Este 0 -- -- 97
2018-11-04 04:00:00 -3.4 4 Sudeste 5 Este 0 -- -- 96
2018-11-04 03:00:00 -2.8 4 Este 6 Este 0 -- -- 96
2018-11-04 02:00:00 -2.7 4 Este 6 Este 0 -- -- 96
2018-11-04 01:00:00 -1.4 2 Este 8 Este 0 -- -- 97
2018-11-04 00:00:00 -2.2 4 Este 6 Este 0 -- -- 95
2018-11-03 23:00:00 -1.8 4 Este 9 Sudeste 0 -- -- 94
2018-11-03 22:00:00 -0.6 3 Sudeste 5 Nordeste 0 -- -- 92
2018-11-03 21:00:00 0.4 2 Sudeste 5 Sudeste 0 -- -- 86
2018-11-03 20:00:00 2.9 2 Sudeste 5 Sudeste 0 -- -- 82
2018-11-03 19:00:00 6.3 3 Oeste 5 Oeste 0 -- -- 69
2018-11-03 18:00:00 12 3 Oeste 13 Oeste 0 -- -- 49
2018-11-03 17:00:00 17.1 6 Sudoeste 13 Oeste 0 -- -- 34
2018-11-03 16:00:00 18.1 4 Noroeste 13 Noroeste 0 -- -- 28
2018-11-03 15:00:00 17.6 5 Noroeste 15 Noroeste 0 -- -- 33
2018-11-03 14:00:00 16.2 6 Noroeste 13 Norte 0 -- -- 35
2018-11-03 13:00:00 14.8 6 Oeste 17 Noroeste 0 -- -- 41
2018-11-03 12:00:00 12.8 5 Oeste 14 Oeste 0 -- -- 53
2018-11-03 11:00:00 11.2 4 Oeste 10 Oeste 0 -- -- 64
2018-11-03 10:00:00 8.2 0 Calma 3 Sudeste 0 -- -- 76
2018-11-03 09:00:00 2.5 0 Calma 4 Sur 0 -- -- 93
2018-11-03 08:00:00 -3.3 4 Este 6 Este 0 -- -- 98
2018-11-03 07:00:00 -3.1 0 Calma 2 Noroeste 0 -- -- 99
2018-11-03 06:00:00 -2.4 0 Calma 5 Nordeste 0 -- -- 100
2018-11-03 05:00:00 -1.6 3 Sudeste 6 Este 0 -- -- 98
2018-11-03 04:00:00 -0.6 3 Este 5 Este 0 -- -- 99
2018-11-03 03:00:00 0.6 2 Sur 5 Sur 0 -- -- 98
2018-11-03 02:00:00 2 0 Calma 5 Norte 0 -- -- 96
2018-11-03 01:00:00 3.4 3 Sur 12 Nordeste 0 -- -- 93
2018-11-03 00:00:00 5.6 9 Nordeste 14 Nordeste 0 -- -- 91
2018-11-02 23:00:00 4.9 6 Norte 12 Nordeste 0 -- -- 95
2018-11-02 22:00:00 5.8 3 Sudeste 14 Norte 0 -- -- 88
2018-11-02 21:00:00 8.1 10 Norte 16 Norte 0 -- -- 80
2018-11-02 20:00:00 9.2 13 Norte 15 Norte 0 -- -- 77
2018-11-02 19:00:00 10.4 10 Nordeste 18 Nordeste 0 -- -- 77
2018-11-02 18:00:00 13.2 13 Nordeste 22 Nordeste 0 -- -- 68
2018-11-02 17:00:00 16.1 17 Nordeste 23 Nordeste 0 -- -- 60
2018-11-02 16:00:00 16 15 Norte 24 Nordeste 0 -- -- 61
2018-11-02 15:00:00 16.2 15 Norte 23 Norte 0 -- -- 61
2018-11-02 14:00:00 17.7 18 Norte 28 Norte 0 -- -- 59
2018-11-02 13:00:00 14.4 14 Norte 32 Noroeste 0 -- -- 74
2018-11-02 12:00:00 13.8 21 Noroeste 35 Noroeste 0.2 -- -- 77
2018-11-02 11:00:00 13.7 14 Oeste 31 Oeste 0 -- -- 81
2018-11-02 10:00:00 11.5 13 Oeste 36 Oeste 0 -- -- 90
2018-11-02 09:00:00 10.8 13 Oeste 28 Oeste 0 -- -- 92
2018-11-02 08:00:00 10.3 14 Oeste 27 Sudoeste 0 -- -- 93
2018-11-02 07:00:00 10.1 12 Oeste 31 Sudoeste 0 -- -- 94
2018-11-02 06:00:00 9.8 15 Oeste 30 Oeste 0 -- -- 94
2018-11-02 05:00:00 9.2 11 Oeste 22 Oeste 0 -- -- 94
2018-11-02 04:00:00 8.4 8 Sudoeste 20 Sudoeste 0 -- -- 95
2018-11-02 03:00:00 8.2 5 Sudoeste 10 Sudoeste 0 -- -- 93
2018-11-02 02:00:00 7.6 4 Sudoeste 15 Sudoeste 0 -- -- 93
2018-11-02 01:00:00 7.5 8 Sudoeste 18 Sudoeste 0.2 -- -- 93
2018-11-02 00:00:00 7.3 3 Oeste 6 Sudoeste 0 -- -- 88
2018-11-01 23:00:00 6.4 0 Calma 3 Oeste 0 -- -- 93
2018-11-01 22:00:00 6.5 2 Sudoeste 3 Sudoeste 0 -- -- 91
2018-11-01 21:00:00 7 2 Nordeste 3 Nordeste 0 -- -- 90
2018-11-01 20:00:00 7.8 0 Calma 3 Sur 0 -- -- 86
2018-11-01 19:00:00 8.5 0 Calma 5 Oeste 0 -- -- 83
2018-11-01 18:00:00 9.6 3 Sudoeste 10 Oeste 0 -- -- 71
2018-11-01 17:00:00 10.5 6 Oeste 12 Oeste 0 -- -- 63
2018-11-01 16:00:00 11 9 Oeste 15 Oeste 0 -- -- 61
2018-11-01 15:00:00 11.7 9 Oeste 16 Oeste 0 -- -- 58
2018-11-01 14:00:00 12 10 Oeste 17 Oeste 0 -- -- 59
2018-11-01 13:00:00 12.4 5 Noroeste 17 Sudoeste 0 -- -- 59
2018-11-01 12:00:00 10.8 6 Oeste 15 Sudoeste 0 -- -- 63
2018-11-01 11:00:00 8.4 7 Sur 18 Sudoeste 0 -- -- 79
2018-11-01 10:00:00 4.6 7 Sudoeste 12 Sur 0 -- -- 97
2018-11-01 09:00:00 4.2 4 Sur 10 Oeste 0 -- -- 99
2018-11-01 08:00:00 4.3 4 Sudoeste 11 Sudoeste 0 -- -- 99
2018-11-01 07:00:00 4.8 4 Sudoeste 9 Sudoeste 0 -- -- 99
2018-11-01 06:00:00 4.8 3 Oeste 7 Sudoeste 0 -- -- 100
2018-11-01 05:00:00 4.9 0 Calma 3 Sur 0 -- -- 99
2018-11-01 04:00:00 5.5 0 Calma 2 Nordeste 0 -- -- 99
2018-11-01 03:00:00 6 0 Calma 4 Nordeste 0 -- -- 99
2018-11-01 02:00:00 6.2 0 Calma 4 Sudoeste 0 -- -- 99
2018-11-01 01:00:00 6.2 3 Este 6 Este 0 -- -- 98
2018-11-01 00:00:00 6.2 2 Nordeste 4 Sudoeste 0 -- -- 98
2018-10-31 23:00:00 6.7 0 Calma 14 Norte 0.2 -- -- 96
2018-10-31 22:00:00 6.2 0 Calma 3 Sudoeste 0 -- -- 98
2018-10-31 21:00:00 6.3 2 Sudoeste 3 Sur 0 -- -- 97
2018-10-31 20:00:00 6.5 2 Oeste 5 Oeste 0 -- -- 95
2018-10-31 19:00:00 6.8 0 Calma 6 Sudoeste 0 -- -- 93
2018-10-31 18:00:00 7.5 4 Oeste 15 Oeste 0 -- -- 89
2018-10-31 17:00:00 8.1 8 Oeste 18 Oeste 0 -- -- 85
2018-10-31 16:00:00 7.4 11 Oeste 19 Oeste 0 -- -- 88
2018-10-31 15:00:00 7.2 11 Oeste 20 Oeste 0 -- -- 89
2018-10-31 14:00:00 6.3 10 Oeste 21 Oeste 0 -- -- 95
2018-10-31 13:00:00 6.2 8 Oeste 19 Sudoeste 0 -- -- 96
2018-10-31 12:00:00 6.1 9 Sudoeste 19 Sudoeste 0 -- -- 95
2018-10-31 11:00:00 6.5 5 Sudoeste 17 Oeste 0 -- -- 95
2018-10-31 10:00:00 5.7 8 Oeste 17 Oeste 0 -- -- 96
2018-10-31 09:00:00 5.3 9 Oeste 21 Oeste 0 -- -- 98
2018-10-31 08:00:00 5.7 10 Oeste 17 Oeste 0.8 -- -- 99
2018-10-31 07:00:00 5.6 3 Sudoeste 6 Sudoeste 0.2 -- -- 99
2018-10-31 06:00:00 5.7 3 Sudoeste 7 Oeste 0 -- -- 99
2018-10-31 05:00:00 5.6 3 Sudoeste 8 Sudoeste 0.2 -- -- 99
2018-10-31 04:00:00 5.8 2 Sudoeste 7 Sudoeste 0.4 -- -- 99
2018-10-31 03:00:00 5.9 3 Sudoeste 5 Oeste 0.6 -- -- 98
2018-10-31 02:00:00 6 0 Calma 4 Oeste 0.8 -- -- 98
2018-10-31 01:00:00 6.1 0 Calma 3 Sur 0.2 -- -- 97
2018-10-31 00:00:00 6.3 3 Oeste 6 Oeste 0 -- -- 97
2018-10-30 23:00:00 6.3 2 Oeste 5 Oeste 0 -- -- 98
2018-10-30 22:00:00 6.3 0 Calma 3 Sudoeste 0.2 -- -- 97
2018-10-30 21:00:00 6.6 2 Oeste 5 Oeste 0.4 -- -- 95
2018-10-30 20:00:00 6.8 4 Sudoeste 13 Sudoeste 0 -- -- 91
2018-10-30 19:00:00 7 5 Nordeste 10 Este 0 -- -- 86
2018-10-30 18:00:00 7.9 8 Nordeste 13 Este 0 -- -- 84
2018-10-30 17:00:00 8.5 8 Este 19 Este 0.2 -- -- 81
2018-10-30 16:00:00 9.9 10 Este 19 Este 0 -- -- 79
2018-10-30 15:00:00 9 12 Nordeste 18 Este 0 -- -- 81
2018-10-30 14:00:00 9.6 4 Nordeste 8 Este 0 -- -- 83
2018-10-30 13:00:00 7.8 4 Este 11 Este 1 -- -- 92
2018-10-30 12:00:00 7.3 8 Este 11 Este 1.2 -- -- 94
2018-10-30 11:00:00 6.8 5 Este 11 Este 0 -- -- 91
2018-10-30 10:00:00 5.7 6 Este 10 Este 0.2 -- -- 95
2018-10-30 09:00:00 4.7 6 Este 13 Este 0.2 -- -- 96
2018-10-30 08:00:00 3.6 5 Este 8 Este 0.8 -- -- 96
2018-10-30 07:00:00 3.3 0 Calma 16 Sur 1.2 -- -- 93
2018-10-30 06:00:00 3.2 0 Calma 3 Sudeste 0.6 -- -- 93
2018-10-30 05:00:00 3.3 0 Calma 4 Sur 0.2 -- -- 86
2018-10-30 04:00:00 4.4 3 Sur 10 Sur 0 -- -- 75
2018-10-30 03:00:00 4.8 8 Sur 18 Sur 0 -- -- 71
2018-10-30 02:00:00 4.7 8 Sudoeste 17 Sudoeste 0 -- -- 73
2018-10-30 01:00:00 4.2 6 Sudoeste 15 Sudoeste 0 -- -- 72
2018-10-30 00:00:00 -0.3 0 Calma 3 Oeste 0 -- -- 89
2018-10-29 23:00:00 -0.6 2 Sudeste 10 Sudoeste 0 -- -- 87
2018-10-29 22:00:00 -1.3 0 Calma 4 Noroeste 0 -- -- 88
2018-10-29 21:00:00 0.4 3 Noroeste 4 Sudoeste 0 -- -- 76
2018-10-29 20:00:00 4.4 5 Oeste 17 Noroeste 0 -- -- 60
2018-10-29 19:00:00 5.7 7 Noroeste 16 Noroeste 0 -- -- 53
2018-10-29 18:00:00 7.6 8 Oeste 20 Oeste 0 -- -- 48
2018-10-29 17:00:00 7.9 14 Oeste 38 Noroeste 0 -- -- 47
2018-10-29 16:00:00 8.4 19 Oeste 39 Oeste 0 -- -- 42
2018-10-29 15:00:00 9.1 23 Noroeste 40 Oeste 0 -- -- 38
2018-10-29 14:00:00 9.9 21 Noroeste 40 Noroeste 0 -- -- 37
2018-10-29 13:00:00 10 22 Oeste 38 Oeste 0 -- -- 38
2018-10-29 12:00:00 8.5 19 Noroeste 37 Noroeste 0 -- -- 44
2018-10-29 11:00:00 6.6 22 Noroeste 36 Noroeste 0 -- -- 56
2018-10-29 10:00:00 5 16 Oeste 28 Oeste 0 -- -- 65
2018-10-29 09:00:00 2.4 10 Oeste 19 Oeste 0 -- -- 74
2018-10-29 08:00:00 -1.4 6 Oeste 16 Oeste 0 -- -- 88
2018-10-29 07:00:00 0.4 10 Oeste 23 Oeste 0 -- -- 80
2018-10-29 06:00:00 -0.1 5 Oeste 13 Oeste 0 -- -- 85
2018-10-29 05:00:00 -0.5 4 Oeste 10 Oeste 0 -- -- 89
2018-10-29 04:00:00 -0.9 3 Oeste 9 Oeste 0 -- -- 91
2018-10-29 03:00:00 -0.7 3 Oeste 6 Oeste 0 -- -- 90
2018-10-29 02:00:00 -0.8 3 Oeste 8 Oeste 0 -- -- 91
2018-10-29 01:00:00 -1.3 2 Oeste 6 Oeste 0 -- -- 93
2018-10-29 00:00:00 -1.9 3 Oeste 6 Oeste 0 -- -- 93
2018-10-28 23:00:00 -0.2 3 Oeste 14 Noroeste 0 -- -- 88
2018-10-28 22:00:00 1.3 10 Noroeste 23 Norte 0 -- -- 83
2018-10-28 21:00:00 2.8 12 Noroeste 21 Norte 0 -- -- 70
2018-10-28 20:00:00 3.9 9 Noroeste 14 Noroeste 0 -- -- 70
2018-10-28 19:00:00 2.5 2 Oeste 10 Noroeste 0 -- -- 74
2018-10-28 18:00:00 4.9 8 Noroeste 27 Noroeste 0 -- -- 62
2018-10-28 17:00:00 6.1 13 Norte 36 Noroeste 0 -- -- 58
2018-10-28 16:00:00 7.5 20 Norte 32 Norte 0 -- -- 51
2018-10-28 15:00:00 6.5 23 Norte 37 Norte 0 -- -- 56
2018-10-28 14:00:00 6.6 24 Norte 35 Norte 0 -- -- 55
2018-10-28 13:00:00 6.9 21 Norte 32 Norte 0 -- -- 55
2018-10-28 12:00:00 6.3 20 Norte 33 Norte 0 -- -- 68
2018-10-28 11:00:00 3.4 22 Norte 35 Norte 0 -- -- 82
2018-10-28 10:00:00 3.3 17 Norte 27 Norte 0.2 -- -- 87
2018-10-28 09:00:00 0.2 2 Sur 8 Sudoeste 0 -- -- 97
2018-10-28 08:00:00 -0.5 6 Oeste 10 Sudoeste 0 -- -- 98
2018-10-28 07:00:00 -0.7 0 Calma 5 Noroeste 0 -- -- 98
2018-10-28 06:00:00 -1.5 0 Calma 3 Sur 0 -- -- 98
2018-10-28 05:00:00 -1.6 0 Calma 3 Oeste 0 -- -- 98
2018-10-28 04:00:00 -1.1 3 Oeste 5 Oeste 0 -- -- 98
2018-10-28 03:00:00 -0.7 0 Calma 4 Noroeste 0 -- -- 96
2018-10-28 02:00:00 0.9 4 Noroeste 13 Noroeste 0 -- -- 94
2018-10-28 01:00:00 2.6 9 Norte 16 Norte 0 -- -- 87
2018-10-28 00:00:00 2.7 9 Norte 15 Norte 0 -- -- 89
2018-10-27 23:00:00 2.1 2 Este 24 Nordeste 0 -- -- 93
2018-10-27 22:00:00 2.1 15 Nordeste 32 Norte 0 -- -- 90
2018-10-27 21:00:00 3.7 10 Norte 20 Norte 0 -- -- 86
2018-10-27 20:00:00 3.7 4 Norte 14 Norte 0 -- -- 84
2018-10-27 19:00:00 4.3 6 Norte 27 Nordeste 0.4 -- -- 85
2018-10-27 18:00:00 6.3 7 Norte 22 Norte 0 -- -- 80
2018-10-27 17:00:00 4.4 21 Norte 47 Norte 1 -- -- 88
2018-10-27 16:00:00 9.3 18 Norte 33 Noroeste 0 -- -- 52
2018-10-27 15:00:00 9.8 14 Norte 28 Norte 0 -- -- 56
2018-10-27 14:00:00 7.7 21 Norte 31 Norte 0 -- -- 66
2018-10-27 13:00:00 6.6 18 Norte 29 Norte 0.2 -- -- 78
2018-10-27 12:00:00 6.5 19 Norte 41 Nordeste 0 -- -- 75
2018-10-27 11:00:00 6 23 Norte 39 Norte 0 -- -- 80
2018-10-27 10:00:00 6 21 Norte 33 Norte 0 -- -- 78
2018-10-27 09:00:00 5.9 20 Norte 33 Nordeste 0 -- -- 84
2018-10-27 08:00:00 6.8 24 Norte 42 Norte 0 -- -- 81
2018-10-27 07:00:00 8.9 22 Norte 34 Norte 0 -- -- 78
2018-10-27 06:00:00 8.9 14 Norte 26 Norte 0 -- -- 77
2018-10-27 05:00:00 9.2 6 Nordeste 15 Nordeste 0 -- -- 76
2018-10-27 04:00:00 9.1 0 Calma 30 Nordeste 0 -- -- 85
2018-10-27 03:00:00 10 17 Norte 29 Norte 0 -- -- 83
2018-10-27 02:00:00 10.1 11 Norte 21 Norte 0 -- -- 81
2018-10-27 01:00:00 10.7 15 Norte 23 Norte 0 -- -- 79
2018-10-27 00:00:00 10.9 13 Norte 22 Norte 0 -- -- 80
2018-10-26 23:00:00 11.4 8 Norte 15 Norte 0 -- -- 84
2018-10-26 22:00:00 10.3 0 Calma 5 Oeste 0 -- -- 85
2018-10-26 21:00:00 11 0 Calma 2 Sur 0 -- -- 85
2018-10-26 20:00:00 11.8 0 Calma 0 Calma 0 -- -- 80
2018-10-26 19:00:00 14.3 0 Calma 3 Sudoeste 0 -- -- 68
2018-10-26 18:00:00 16.5 2 Sudoeste 4 Sudoeste 0 -- -- 53
2018-10-26 17:00:00 17 0 Calma 3 Oeste 0 -- -- 52
2018-10-26 16:00:00 16.5 0 Calma 8 Oeste 0 -- -- 57
2018-10-26 15:00:00 16.2 4 Oeste 7 Oeste 0 -- -- 60
2018-10-26 14:00:00 16.4 2 Noroeste 6 Oeste 0 -- -- 58
2018-10-26 13:00:00 13.7 2 Sudeste 8 Sudeste 0 -- -- 65
2018-10-26 12:00:00 11.9 4 Norte 7 Sudeste 0 -- -- 69
2018-10-26 11:00:00 8.1 2 Sudeste 6 Sudeste 0 -- -- 85
2018-10-26 10:00:00 5.5 4 Sur 6 Sudeste 0 -- -- 91
2018-10-26 09:00:00 2.2 4 Sudeste 6 Nordeste 0 -- -- 93
2018-10-26 08:00:00 1.3 4 Este 5 Este 0 -- -- 93
2018-10-26 07:00:00 1.6 3 Sudeste 5 Este 0 -- -- 93
2018-10-26 06:00:00 1.7 0 Calma 3 Este 0 -- -- 92
2018-10-26 05:00:00 1.9 2 Nordeste 6 Sudeste 0 -- -- 91
2018-10-26 04:00:00 3.2 4 Sudeste 7 Sudeste 0 -- -- 86
2018-10-26 03:00:00 2.8 6 Este 8 Este 0 -- -- 88
2018-10-26 02:00:00 2 4 Sudeste 5 Sudeste 0 -- -- 87
2018-10-26 01:00:00 4.4 4 Oeste 8 Este 0 -- -- 80
2018-10-26 00:00:00 4.1 2 Este 5 Sudeste 0 -- -- 79
2018-10-25 23:00:00 4.3 4 Este 6 Este 0 -- -- 79
2018-10-25 22:00:00 5.6 3 Sudeste 6 Sudeste 0 -- -- 74
2018-10-25 21:00:00 9 3 Sudeste 10 Sudeste 0 -- -- 65
2018-10-25 20:00:00 11.3 0 Calma 6 Oeste 0 -- -- 59
2018-10-25 19:00:00 19 4 Noroeste 13 Noroeste 0 -- -- 36
2018-10-25 18:00:00 23.2 8 Oeste 14 Oeste 0 -- -- 29
2018-10-25 17:00:00 24 6 Sudoeste 13 Sudoeste 0 -- -- 27
2018-10-25 16:00:00 23.5 5 Oeste 15 Oeste 0 -- -- 28
2018-10-25 15:00:00 22.7 6 Oeste 12 Oeste 0 -- -- 30
2018-10-25 14:00:00 21.8 4 Noroeste 10 Sur 0 -- -- 33
2018-10-25 13:00:00 20.3 2 Sudoeste 6 Sudoeste 0 -- -- 42
2018-10-25 12:00:00 16.6 2 Sudoeste 5 Noroeste 0 -- -- 51
2018-10-25 11:00:00 11.8 0 Calma 7 Este 0 -- -- 65
2018-10-25 10:00:00 4.8 0 Calma 5 Este 0 -- -- 85
2018-10-25 09:00:00 -2.6 3 Este 5 Este 0 -- -- 96
2018-10-25 08:00:00 -3.3 2 Sudeste 4 Sudeste 0 -- -- 97
2018-10-25 07:00:00 -2.6 2 Sudeste 6 Este 0 -- -- 97
2018-10-25 06:00:00 -2.5 2 Este 4 Sudeste 0 -- -- 96
2018-10-25 05:00:00 -2 3 Sudeste 4 Este 0 -- -- 96
2018-10-25 04:00:00 -1.2 0 Calma -- -- 0 -- -- 97
2018-10-25 03:00:00 -1.5 5 Este 7 Este 0 -- -- 95
2018-10-25 02:00:00 -0.5 5 Sudeste 7 Este 0 -- -- 95
2018-10-25 01:00:00 0.5 3 Este 5 Este 0 -- -- 91
2018-10-25 00:00:00 1.5 3 Este 5 Este 0 -- -- 92
2018-10-24 23:00:00 2.1 3 Sudeste 8 Este 0 -- -- 91
2018-10-24 22:00:00 3.6 3 Sudeste 4 Sudeste 0 -- -- 88
2018-10-24 21:00:00 5.4 0 Calma 4 Este 0 -- -- 84
2018-10-24 20:00:00 10.3 0 Calma 4 Sudoeste 0 -- -- 70
2018-10-24 19:00:00 20.1 3 Sudoeste 12 Oeste 0 -- -- 41
2018-10-24 18:00:00 21.5 6 Oeste 12 Oeste 0 -- -- 34
2018-10-24 17:00:00 22.4 4 Oeste 12 Oeste 0 -- -- 34
2018-10-24 16:00:00 21.8 5 Oeste 12 Oeste 0 -- -- 36
2018-10-24 15:00:00 20.3 6 Oeste 19 Oeste 0 -- -- 41
2018-10-24 14:00:00 18.8 6 Sudoeste 13 Sudoeste 0 -- -- 45
2018-10-24 13:00:00 16.4 8 Oeste 14 Oeste 0 -- -- 52
2018-10-24 12:00:00 13.8 6 Sudoeste 13 Sudoeste 0 -- -- 61
2018-10-24 11:00:00 11.5 2 Sudoeste 4 Sudoeste 0 -- -- 67
2018-10-24 10:00:00 5.2 0 Calma 3 Nordeste 0 -- -- 85
2018-10-24 09:00:00 -1 0 Calma 7 Nordeste 0 -- -- 96
2018-10-24 08:00:00 -2.3 5 Sudeste 7 Sudeste 0 -- -- 97
2018-10-24 07:00:00 -0.9 0 Calma 6 Nordeste 0 -- -- 97
2018-10-24 06:00:00 -0.7 0 Calma 3 Sudeste 0 -- -- 96
2018-10-24 05:00:00 0.3 3 Sudeste 5 Este 0 -- -- 95
2018-10-24 04:00:00 1.3 4 Este 6 Sudeste 0 -- -- 96
2018-10-24 03:00:00 1.6 5 Este 9 Este 0 -- -- 94
2018-10-24 02:00:00 3 0 Calma 5 Nordeste 0 -- -- 93
2018-10-24 01:00:00 7 4 Este 15 Este 0 -- -- 77
2018-10-24 00:00:00 8.2 8 Nordeste 12 Nordeste 0 -- -- 76
2018-10-23 23:00:00 9.4 4 Este 14 Norte 0 -- -- 71
2018-10-23 22:00:00 11.5 6 Este 30 Norte 0 -- -- 64
2018-10-23 21:00:00 13.8 21 Norte 29 Norte 0 -- -- 58
2018-10-23 20:00:00 15.8 17 Norte 22 Norte 0 -- -- 49
2018-10-23 19:00:00 22 2 Norte 14 Norte 0 -- -- 29
2018-10-23 18:00:00 23.1 9 Norte 17 Norte 0 -- -- 27
2018-10-23 17:00:00 24.4 9 Norte 13 Norte 0 -- -- 27
2018-10-23 16:00:00 24 5 Norte 18 Nordeste 0 -- -- 28
2018-10-23 15:00:00 23 8 Norte 15 Nordeste 0 -- -- 28
2018-10-23 14:00:00 20.3 8 Este 17 Este 0 -- -- 34
2018-10-23 13:00:00 18 7 Este 17 Nordeste 0 -- -- 37
2018-10-23 12:00:00 15.6 8 Nordeste 18 Nordeste 0 -- -- 43
2018-10-23 11:00:00 12.8 12 Nordeste 17 Nordeste 0 -- -- 52
2018-10-23 10:00:00 8.3 8 Este 13 Este 0 -- -- 74
2018-10-23 09:00:00 2.1 5 Sudeste 10 Sudeste 0 -- -- 89
2018-10-23 08:00:00 2.5 6 Sudeste 12 Este 0 -- -- 86
2018-10-23 07:00:00 4.6 8 Este 21 Este 0 -- -- 80
2018-10-23 06:00:00 5 9 Este 28 Norte 0 -- -- 78
2018-10-23 05:00:00 6.8 23 Norte 31 Norte 0 -- -- 71
2018-10-23 04:00:00 5.9 5 Este 35 Norte 0 -- -- 76
2018-10-23 03:00:00 7.5 29 Norte 43 Norte 0 -- -- 72
2018-10-23 02:00:00 8.1 32 Norte 39 Norte 0 -- -- 70
2018-10-23 01:00:00 8.5 28 Norte 37 Norte 0 -- -- 65
2018-10-23 00:00:00 9.3 26 Norte 37 Norte 0 -- -- 62
2018-10-22 23:00:00 10.3 29 Norte 39 Norte 0 -- -- 49
2018-10-22 22:00:00 11.5 31 Norte 41 Norte 0 -- -- 47
2018-10-22 21:00:00 12.9 33 Norte 44 Norte 0 -- -- 47
2018-10-22 20:00:00 14.6 32 Norte 43 Norte 0 -- -- 43
2018-10-22 19:00:00 17.5 27 Norte 43 Norte 0 -- -- 43
2018-10-22 18:00:00 20.6 28 Nordeste 36 Nordeste 0 -- -- 37
2018-10-22 17:00:00 22.4 21 Norte 32 Norte 0 -- -- 31
2018-10-22 16:00:00 22.5 18 Nordeste 30 Norte 0 -- -- 31
2018-10-22 15:00:00 22 18 Norte 28 Nordeste 0 -- -- 33
2018-10-22 14:00:00 20.8 19 Nordeste 31 Nordeste 0 -- -- 38
2018-10-22 13:00:00 19.2 20 Nordeste 31 Nordeste 0 -- -- 46
2018-10-22 12:00:00 16.9 22 Nordeste 30 Nordeste 0 -- -- 56
2018-10-22 11:00:00 14.2 20 Norte 35 Norte 0 -- -- 70
2018-10-22 10:00:00 11.6 15 Nordeste 27 Nordeste 0 -- -- 83
2018-10-22 09:00:00 3.6 5 Este 7 Este 0 -- -- 98
2018-10-22 08:00:00 4.6 3 Este 10 Este 0 -- -- 98
2018-10-22 07:00:00 7.7 9 Este 14 Este 0 -- -- 98
2018-10-22 06:00:00 4.5 3 Este 8 Este 0 -- -- 99
2018-10-22 05:00:00 4.7 6 Este 9 Este 0 -- -- 99
2018-10-22 04:00:00 4.2 5 Este 6 Este 0 -- -- 97
2018-10-22 03:00:00 5.2 0 Calma 4 Sudeste 0 -- -- 98
2018-10-22 02:00:00 5.8 3 Este 6 Sudeste 0 -- -- 98
2018-10-22 01:00:00 6.5 3 Este 4 Este 0 -- -- 97
2018-10-22 00:00:00 6.6 3 Sudeste 4 Este 0 -- -- 95
2018-10-21 23:00:00 7.9 2 Sudeste 5 Este 0 -- -- 93
2018-10-21 22:00:00 10 2 Sur 6 Este 0 -- -- 89
2018-10-21 21:00:00 10 2 Sur 4 Sudeste 0 -- -- 93
2018-10-21 20:00:00 12.5 0 Calma 6 Sur 0 -- -- 84
2018-10-21 19:00:00 17.1 2 Nordeste -- -- 0 -- -- 68
2018-10-21 18:00:00 19.7 3 Oeste 6 Sur 0 -- -- 55
2018-10-21 17:00:00 20.9 5 Sur 27 Este 0 -- -- 51
2018-10-21 16:00:00 22.9 14 Sudeste 26 Sudeste 0 -- -- 43
2018-10-21 15:00:00 23.5 13 Sudeste 24 Sudeste 0 -- -- 44
2018-10-21 14:00:00 21.4 11 Este 20 Este 0 -- -- 53
2018-10-21 13:00:00 19.5 8 Este 21 Nordeste 0 -- -- 61
2018-10-21 12:00:00 17.3 12 Nordeste 19 Este 0 -- -- 72
2018-10-21 11:00:00 15.3 12 Este 20 Este 0 -- -- 80
2018-10-21 10:00:00 13.5 13 Nordeste 20 Nordeste 0 -- -- 86
2018-10-21 09:00:00 12.5 11 Nordeste 17 Nordeste 0 -- -- 89
2018-10-21 08:00:00 11.8 8 Nordeste 18 Nordeste 0 -- -- 89
2018-10-21 07:00:00 12.8 10 Nordeste 18 Nordeste 0 -- -- 83
2018-10-21 06:00:00 11.7 8 Este 20 Nordeste 0 -- -- 89
2018-10-21 05:00:00 11.9 9 Este 28 Nordeste 0 -- -- 88
2018-10-21 04:00:00 11.9 15 Nordeste 24 Nordeste 0 -- -- 87
2018-10-21 03:00:00 11.6 5 Este 19 Este 0 -- -- 86
2018-10-21 02:00:00 13.1 17 Nordeste 26 Nordeste 0 -- -- 81
2018-10-21 01:00:00 12.9 9 Este 21 Este 0 -- -- 84
2018-10-21 00:00:00 13.6 14 Este 28 Nordeste 0 -- -- 82
2018-10-20 23:00:00 14.4 15 Este 34 Este 0 -- -- 78
2018-10-20 22:00:00 14.7 20 Este 32 Este 0 -- -- 76
2018-10-20 21:00:00 15.1 20 Este 32 Este 0 -- -- 75
2018-10-20 20:00:00 15.9 23 Este 33 Este 0 -- -- 71
2018-10-20 19:00:00 17.1 22 Este 39 Este 0 -- -- 68
2018-10-20 18:00:00 18.2 23 Este 41 Este 0 -- -- 63
2018-10-20 17:00:00 19.1 27 Este 48 Este 0 -- -- 58
2018-10-20 16:00:00 20.6 33 Este 48 Este 0 -- -- 53
2018-10-20 15:00:00 20.7 28 Este 42 Nordeste 0 -- -- 54
2018-10-20 14:00:00 20.3 26 Nordeste 39 Nordeste 0 -- -- 57
2018-10-20 13:00:00 19.6 25 Nordeste 40 Nordeste 0 -- -- 62
2018-10-20 12:00:00 18.6 23 Este 36 Este 0 -- -- 66
2018-10-20 11:00:00 17.4 17 Este 29 Nordeste 0 -- -- 72
2018-10-20 10:00:00 15.5 18 Nordeste 27 Nordeste 0 -- -- 81
2018-10-20 09:00:00 13.2 17 Nordeste 26 Nordeste 0 -- -- 90
2018-10-20 08:00:00 12.8 16 Nordeste 27 Nordeste 0 -- -- 93
2018-10-20 07:00:00 12.7 18 Nordeste 27 Nordeste 0 -- -- 94
2018-10-20 06:00:00 12.2 17 Nordeste 30 Nordeste 0 -- -- 94
2018-10-20 05:00:00 12.1 19 Nordeste 35 Nordeste 0 -- -- 94
2018-10-20 04:00:00 12.5 19 Nordeste 28 Norte 0 -- -- 95
2018-10-20 03:00:00 12.5 21 Nordeste 33 Norte 0.2 -- -- 94
2018-10-20 02:00:00 12.5 19 Nordeste 29 Nordeste 1.2 -- -- 94
2018-10-20 01:00:00 13.8 24 Nordeste 37 Nordeste 0 -- -- 85
2018-10-20 00:00:00 14.1 17 Nordeste 29 Nordeste 0 -- -- 84
2018-10-19 23:00:00 14.7 17 Nordeste 37 Nordeste 0 -- -- 77
2018-10-19 22:00:00 15.3 18 Este 40 Este 0 -- -- 76
2018-10-19 21:00:00 17.1 27 Nordeste 40 Nordeste 0 -- -- 65
2018-10-19 20:00:00 17.3 23 Nordeste 38 Este 0 -- -- 63
2018-10-19 19:00:00 17.6 22 Nordeste 39 Nordeste 0 -- -- 61
2018-10-19 18:00:00 17.9 19 Nordeste 40 Nordeste 0 -- -- 62
2018-10-19 17:00:00 17.9 24 Este 39 Este 0 -- -- 62
2018-10-19 16:00:00 16.6 26 Nordeste 41 Norte 0 -- -- 73
2018-10-19 15:00:00 17.3 25 Nordeste 43 Nordeste 0 -- -- 69
2018-10-19 14:00:00 17 30 Nordeste 45 Nordeste 0 -- -- 71
2018-10-19 13:00:00 17.1 33 Nordeste 45 Nordeste 0 -- -- 70
2018-10-19 12:00:00 15.7 27 Nordeste 45 Nordeste 0 -- -- 75
2018-10-19 11:00:00 15.1 28 Nordeste 45 Nordeste 0 -- -- 78
2018-10-19 10:00:00 14.1 24 Nordeste 41 Nordeste 0 -- -- 82
2018-10-19 09:00:00 13.2 22 Nordeste 35 Nordeste 0 -- -- 87
2018-10-19 08:00:00 13.6 23 Nordeste 33 Nordeste 0 -- -- 83
2018-10-19 07:00:00 13.7 24 Nordeste 35 Norte 0 -- -- 83
2018-10-19 06:00:00 14 27 Norte 40 Norte 0 -- -- 81
2018-10-19 05:00:00 13.9 29 Nordeste 42 Nordeste 0 -- -- 82
2018-10-19 04:00:00 13.7 30 Norte 41 Nordeste 0 -- -- 83
2018-10-19 03:00:00 13.4 28 Nordeste 37 Nordeste 0 -- -- 83
2018-10-19 02:00:00 13.5 22 Nordeste 37 Nordeste 0 -- -- 82
2018-10-19 01:00:00 13.5 23 Nordeste 35 Nordeste 0 -- -- 81
2018-10-19 00:00:00 13.9 26 Nordeste 35 Nordeste 0 -- -- 79
2018-10-18 23:00:00 14 24 Nordeste 35 Norte 0 -- -- 77
2018-10-18 22:00:00 13.7 29 Nordeste 39 Nordeste 0 -- -- 77
2018-10-18 21:00:00 14.8 28 Norte 44 Norte 0 -- -- 74
2018-10-18 20:00:00 15.6 32 Norte 44 Norte 0 -- -- 70
2018-10-18 19:00:00 16.9 31 Norte 45 Norte 0 -- -- 66
2018-10-18 18:00:00 19 21 Nordeste 37 Nordeste 0 -- -- 52
2018-10-18 17:00:00 21.2 23 Nordeste 37 Norte 0 -- -- 46
2018-10-18 16:00:00 20.5 27 Norte 39 Norte 0 -- -- 50
2018-10-18 15:00:00 21.9 23 Nordeste 38 Nordeste 0 -- -- 43
2018-10-18 14:00:00 20.2 26 Nordeste 46 Nordeste 0 -- -- 51
2018-10-18 13:00:00 19.3 24 Nordeste 39 Nordeste 0 -- -- 58
2018-10-18 12:00:00 18.1 23 Nordeste 32 Nordeste 0 -- -- 66
2018-10-18 11:00:00 13.7 19 Nordeste 30 Nordeste 0 -- -- 80
2018-10-18 10:00:00 12.1 17 Nordeste 23 Nordeste 0.2 -- -- 86
2018-10-18 09:00:00 10.8 12 Nordeste 17 Nordeste 0 -- -- 87
2018-10-18 08:00:00 10.9 12 Nordeste 20 Nordeste 0 -- -- 88
2018-10-18 07:00:00 11.3 15 Nordeste 23 Nordeste 0 -- -- 89
2018-10-18 06:00:00 10.9 12 Nordeste 18 Norte 0 -- -- 93
2018-10-18 05:00:00 11 10 Norte 13 Nordeste 0 -- -- 93
2018-10-18 04:00:00 11.3 7 Nordeste 9 Este 0.2 -- -- 95
2018-10-18 03:00:00 11.3 3 Este 13 Este 0 -- -- 94
2018-10-18 02:00:00 12.1 12 Nordeste 16 Nordeste 0.4 -- -- 92
2018-10-18 01:00:00 12.8 6 Este 14 Este 0 -- -- 87
2018-10-18 00:00:00 13.3 9 Este 12 Este 0 -- -- 85